Time;durP1;ratioP1;P1;durP2;ratioP2;P2;SDS_P1;SDS_P2;PMS_P1;PMS_P2;Temp;Humidity;BMP_temperature;BMP_pressure;BME280_temperature;BME280_humidity;BME280_pressure;Samples;Min_cycle;Max_cycle;Signal;HPM_P1;HPM_P2
2023/04/02 00:02:26;;;;;;;74.00;32.45;;;7.00;99.90;;;;;;4971884;28;20035;-80
2023/04/02 00:05:18;;;;;;;76.07;33.25;;;6.90;99.90;;;;;;4956021;28;20174;-79
2023/04/02 00:07:52;;;;;;;67.82;32.58;;;6.90;99.90;;;;;;4961721;28;20031;-81
2023/04/02 00:10:31;;;;;;;68.25;30.60;;;6.90;99.90;;;;;;4971863;28;20078;-78
2023/04/02 00:13:08;;;;;;;74.75;34.10;;;6.90;99.90;;;;;;4971684;28;20026;-79
2023/04/02 00:15:34;;;;;;;82.82;37.05;;;6.80;99.90;;;;;;4985617;28;20436;-80
2023/04/02 00:18:01;;;;;;;84.43;37.53;;;6.80;99.90;;;;;;4974772;28;20101;-80
2023/04/02 00:20:29;;;;;;;85.85;39.15;;;6.80;99.90;;;;;;4974625;28;20026;-81
2023/04/02 00:22:56;;;;;;;92.85;42.85;;;6.70;99.90;;;;;;4991263;28;20034;-80
2023/04/02 00:25:25;;;;;;;94.82;41.80;;;6.70;99.90;;;;;;4991152;28;20034;-82
2023/04/02 00:27:51;;;;;;;82.38;37.33;;;6.70;99.90;;;;;;4999374;28;20027;-83
2023/04/02 00:30:17;;;;;;;75.30;34.40;;;6.70;99.90;;;;;;5031798;28;20047;-80
2023/04/02 00:32:43;;;;;;;69.82;32.88;;;6.70;99.90;;;;;;5055132;28;20383;-80
2023/04/02 00:35:21;;;;;;;68.20;31.63;;;6.70;99.90;;;;;;5054749;28;20039;-80
2023/04/02 00:37:49;;;;;;;67.07;30.15;;;6.70;99.90;;;;;;5056251;28;20029;-79
2023/04/02 00:40:28;;;;;;;55.78;27.30;;;6.70;99.90;;;;;;5056279;28;20695;-82
2023/04/02 00:42:57;;;;;;;59.25;27.33;;;6.70;99.90;;;;;;5056139;28;20055;-79
2023/04/02 00:45:25;;;;;;;61.17;27.20;;;6.70;99.90;;;;;;5054674;28;20064;-80
2023/04/02 00:47:51;;;;;;;58.08;28.33;;;6.70;99.90;;;;;;5055406;28;20071;-80
2023/04/02 00:50:34;;;;;;;52.13;26.60;;;6.70;99.90;;;;;;5055841;28;20033;-80
2023/04/02 00:53:09;;;;;;;53.92;25.70;;;6.60;99.90;;;;;;5056081;28;20468;-79
2023/04/02 00:55:40;;;;;;;49.35;27.77;;;6.60;99.90;;;;;;5047577;28;20033;-80
2023/04/02 00:58:30;;;;;;;59.78;29.70;;;6.60;99.90;;;;;;5055567;28;20036;-79
2023/04/02 01:00:58;;;;;;;57.53;29.17;;;6.60;99.90;;;;;;5055539;28;20367;-79
2023/04/02 01:03:33;;;;;;;56.88;27.52;;;6.60;99.90;;;;;;5054091;28;20776;-81
2023/04/02 01:06:14;;;;;;;92.53;44.80;;;6.60;99.90;;;;;;5053426;28;20044;-80
2023/04/02 01:09:04;;;;;;;99.63;46.28;;;6.50;99.90;;;;;;5056779;28;20021;-81
2023/04/02 01:11:41;;;;;;;109.30;44.90;;;6.60;99.90;;;;;;5055568;28;20067;-83
2023/04/02 01:14:12;;;;;;;77.07;34.55;;;6.50;99.90;;;;;;5056340;28;20071;-82
2023/04/02 01:16:59;;;;;;;48.50;24.40;;;6.50;99.90;;;;;;5055549;28;20395;-79
2023/04/02 01:19:52;;;;;;;47.92;22.83;;;6.50;99.90;;;;;;5054836;28;20413;-79
2023/04/02 01:22:18;;;;;;;57.78;27.02;;;6.60;99.90;;;;;;5054786;28;20025;-82
2023/04/02 01:24:44;;;;;;;71.13;28.98;;;6.50;99.90;;;;;;5054402;28;20029;-81
2023/04/02 01:27:22;;;;;;;64.15;28.25;;;6.50;99.90;;;;;;5055659;28;20071;-80
2023/04/02 01:29:56;;;;;;;64.95;29.27;;;6.40;99.90;;;;;;5056099;28;20017;-79
2023/04/02 01:32:24;;;;;;;70.03;29.83;;;6.40;99.90;;;;;;5054295;28;20032;-79
2023/04/02 01:34:51;;;;;;;72.82;30.40;;;6.40;99.90;;;;;;5054307;28;20048;-79
2023/04/02 01:37:36;;;;;;;74.53;30.25;;;6.30;99.90;;;;;;5055168;28;20032;-82
2023/04/02 01:40:33;;;;;;;78.32;31.05;;;6.30;99.90;;;;;;5053406;28;20025;-83
2023/04/02 01:43:20;;;;;;;71.05;31.08;;;6.30;99.90;;;;;;5054159;28;20091;-81
2023/04/02 01:45:46;;;;;;;72.03;31.10;;;6.30;99.90;;;;;;5054605;28;20025;-79
2023/04/02 01:48:23;;;;;;;76.25;31.25;;;6.20;99.90;;;;;;5054858;28;20013;-82
2023/04/02 01:50:53;;;;;;;73.15;31.17;;;6.20;99.90;;;;;;5054685;28;20013;-81
2023/04/02 01:53:21;;;;;;;67.45;30.85;;;6.20;99.90;;;;;;5054498;28;20108;-80
2023/04/02 01:55:51;;;;;;;74.15;30.48;;;6.20;99.90;;;;;;5053724;28;20017;-80
2023/04/02 01:58:23;;;;;;;71.38;30.70;;;6.20;99.90;;;;;;5052615;28;20052;-80
2023/04/02 02:01:13;;;;;;;;;;;6.10;99.90;;;;;;5054003;28;20017;-79
2023/04/02 02:03:41;;;;;;;109.97;50.20;;;6.20;99.90;;;;;;5054701;28;19904;-80
2023/04/02 02:06:12;;;;;;;115.25;53.10;;;6.20;99.90;;;;;;5053079;28;20479;-79
2023/04/02 02:09:02;;;;;;;115.50;50.15;;;6.30;99.90;;;;;;5053894;28;20123;-80
2023/04/02 02:11:30;;;;;;;116.90;50.80;;;6.30;99.90;;;;;;5053344;28;20040;-80
2023/04/02 02:14:03;;;;;;;117.63;53.40;;;6.40;99.90;;;;;;5052997;28;20017;-81
2023/04/02 02:16:30;;;;;;;120.72;53.35;;;6.40;99.90;;;;;;5054536;28;20159;-82
2023/04/02 02:19:03;;;;;;;123.63;51.08;;;6.50;99.90;;;;;;5054639;28;20025;-82
2023/04/02 02:21:35;;;;;;;121.78;55.40;;;6.50;99.90;;;;;;5054121;28;20434;-83
2023/04/02 02:24:03;;;;;;;126.05;55.75;;;6.60;99.90;;;;;;5053349;28;20025;-81
2023/04/02 02:26:34;;;;;;;84.85;38.58;;;6.60;99.90;;;;;;5052702;28;20123;-82
2023/04/02 02:29:05;;;;;;;89.00;41.27;;;6.50;99.90;;;;;;5052721;28;20083;-79
2023/04/02 02:31:33;;;;;;;86.63;38.15;;;6.50;99.90;;;;;;5052911;28;20033;-79
2023/04/02 02:34:05;;;;;;;113.72;42.25;;;6.60;99.90;;;;;;5053652;28;20029;-80
2023/04/02 02:36:59;;;;;;;103.93;41.63;;;6.50;99.90;;;;;;5054129;28;20034;-80
2023/04/02 02:39:33;;;;;;;89.15;37.97;;;6.50;99.90;;;;;;5052798;28;20027;-80
2023/04/02 02:42:20;;;;;;;87.70;35.08;;;6.50;99.90;;;;;;5052166;28;20084;-79
2023/04/02 02:44:48;;;;;;;63.08;27.15;;;6.50;99.90;;;;;;5053466;28;20028;-82
2023/04/02 02:47:22;;;;;;;68.97;27.98;;;6.50;99.90;;;;;;5051197;28;20394;-82
2023/04/02 02:50:00;;;;;;;64.57;29.38;;;6.50;99.90;;;;;;5052323;28;20025;-79
2023/04/02 02:52:35;;;;;;;56.22;27.55;;;6.50;99.90;;;;;;5053813;28;20108;-79
2023/04/02 02:55:07;;;;;;;65.22;28.40;;;6.60;99.90;;;;;;5053294;28;20032;-81
2023/04/02 02:57:42;;;;;;;;;;;6.50;99.90;;;;;;5054230;28;20017;-81
2023/04/02 03:00:14;;;;;;;52.15;23.95;;;6.50;99.90;;;;;;5053613;28;19905;-79
2023/04/02 03:02:41;;;;;;;53.78;23.42;;;6.50;99.90;;;;;;5053608;28;20608;-80
2023/04/02 03:05:07;;;;;;;54.78;23.77;;;6.40;99.90;;;;;;5053501;28;20021;-81
2023/04/02 03:07:34;;;;;;;53.13;23.80;;;6.40;99.90;;;;;;5052672;28;20021;-80
2023/04/02 03:10:17;;;;;;;51.25;23.33;;;6.40;99.90;;;;;;5052578;28;20017;-81
2023/04/02 03:12:55;;;;;;;55.30;23.40;;;6.40;99.90;;;;;;5052688;28;20471;-78
2023/04/02 03:15:35;;;;;;;53.58;23.45;;;6.30;99.90;;;;;;5053579;28;20110;-80
2023/04/02 03:18:33;;;;;;;48.80;24.38;;;6.30;99.90;;;;;;5052844;28;20021;-81
2023/04/02 03:21:09;;;;;;;48.10;23.02;;;6.30;99.90;;;;;;5049500;28;20032;-80
2023/04/02 03:23:53;;;;;;;45.58;23.15;;;6.20;99.90;;;;;;5053612;28;20526;-79
2023/04/02 03:26:26;;;;;;;44.33;20.23;;;6.10;99.90;;;;;;5052663;28;20025;-82
2023/04/02 03:29:18;;;;;;;37.15;18.60;;;6.00;99.90;;;;;;5052882;28;20024;-80
2023/04/02 03:32:11;;;;;;;38.30;17.98;;;6.10;99.90;;;;;;5042985;28;20044;-82
2023/04/02 03:34:53;;;;;;;31.42;16.60;;;6.00;99.90;;;;;;5053861;28;20168;-79
2023/04/02 03:37:50;;;;;;;32.42;15.00;;;5.90;99.90;;;;;;5051887;28;20024;-82
2023/04/02 03:40:17;;;;;;;26.08;13.73;;;5.70;99.90;;;;;;5051012;28;20033;-79
2023/04/02 03:43:00;;;;;;;37.13;15.50;;;5.50;99.90;;;;;;5051929;28;20029;-79
2023/04/02 03:45:39;;;;;;;27.23;12.82;;;5.50;99.90;;;;;;5051642;28;20036;-80
2023/04/02 03:48:18;;;;;;;28.95;15.15;;;5.50;99.90;;;;;;5051955;28;20021;-79
2023/04/02 03:51:00;;;;;;;30.63;17.48;;;5.50;99.90;;;;;;5051145;28;20040;-82
2023/04/02 03:53:28;;;;;;;25.55;14.73;;;5.50;99.90;;;;;;5046506;28;20049;-80
2023/04/02 03:55:55;;;;;;;24.67;12.93;;;5.70;99.90;;;;;;5052099;28;20086;-81
2023/04/02 03:58:27;;;;;;;32.15;15.80;;;5.70;99.90;;;;;;5051241;28;20033;-80
2023/04/02 04:01:02;;;;;;;;;;;5.80;99.90;;;;;;5053761;28;20052;-80
2023/04/02 04:03:42;;;;;;;25.88;12.23;;;5.80;99.90;;;;;;5050289;28;19912;-79
2023/04/02 04:06:28;;;;;;;28.52;13.88;;;5.80;99.90;;;;;;5056676;28;20047;-79
2023/04/02 04:09:04;;;;;;;36.50;15.90;;;5.90;99.90;;;;;;5055740;28;20055;-82
2023/04/02 04:11:33;;;;;;;26.17;11.45;;;6.00;99.90;;;;;;5054854;28;20028;-80
2023/04/02 04:14:12;;;;;;;19.02;9.85;;;6.00;99.90;;;;;;5056712;28;20044;-80
2023/04/02 04:16:53;;;;;;;25.98;10.13;;;6.00;99.90;;;;;;5056632;28;20017;-79
2023/04/02 04:19:40;;;;;;;19.48;10.38;;;6.10;99.90;;;;;;5055355;28;20025;-83
2023/04/02 04:22:29;;;;;;;21.05;9.45;;;6.20;99.90;;;;;;5055508;28;20131;-81
2023/04/02 04:24:59;;;;;;;20.70;8.80;;;6.20;99.90;;;;;;5054188;28;20025;-80
2023/04/02 04:27:57;;;;;;;13.65;7.70;;;6.20;99.90;;;;;;5056214;28;20095;-81
2023/04/02 04:30:45;;;;;;;15.73;8.52;;;6.20;99.90;;;;;;5051336;28;20317;-81
2023/04/02 04:33:25;;;;;;;20.45;10.38;;;6.20;99.90;;;;;;5054888;28;20028;-83
2023/04/02 04:35:59;;;;;;;19.48;9.30;;;6.30;99.90;;;;;;5055175;28;20029;-82
2023/04/02 04:38:32;;;;;;;18.50;8.48;;;6.30;99.90;;;;;;5055258;28;20021;-83
2023/04/02 04:41:09;;;;;;;23.92;10.38;;;6.40;99.90;;;;;;5055647;28;20039;-82
2023/04/02 04:43:47;;;;;;;21.25;10.13;;;6.40;99.90;;;;;;5049575;28;20032;-82
2023/04/02 04:46:18;;;;;;;22.30;11.75;;;6.40;99.90;;;;;;5049788;28;20451;-81
2023/04/02 04:49:22;;;;;;;23.67;10.33;;;6.60;99.90;;;;;;5056004;28;20024;-82
2023/04/02 04:51:57;;;;;;;17.65;8.73;;;6.60;99.90;;;;;;5016906;28;20337;-81
2023/04/02 04:54:26;;;;;;;24.25;10.27;;;6.70;99.90;;;;;;5017107;28;20037;-81
2023/04/02 04:56:59;;;;;;;20.88;10.18;;;6.80;99.90;;;;;;5033869;28;20028;-81
2023/04/02 04:59:41;;;;;;;22.88;11.15;;;6.90;99.90;;;;;;5017083;28;20037;-82
2023/04/02 05:02:21;;;;;;;22.77;10.73;;;7.00;99.90;;;;;;5008530;28;20033;-82
2023/04/02 05:04:51;;;;;;;23.02;10.18;;;7.10;99.90;;;;;;5015954;28;20431;-81
2023/04/02 05:07:43;;;;;;;48.90;18.58;;;7.00;99.90;;;;;;5033176;28;20384;-80
2023/04/02 05:10:34;;;;;;;36.40;15.02;;;7.10;99.90;;;;;;5034087;28;20103;-81
2023/04/02 05:13:16;;;;;;;18.98;8.68;;;7.20;99.90;;;;;;4996445;28;20034;-81
2023/04/02 05:16:25;;;;;;;13.55;7.22;;;7.20;99.90;;;;;;5030189;28;20036;-81
2023/04/02 05:19:08;;;;;;;18.38;7.72;;;7.30;99.90;;;;;;4966846;28;20030;-80
2023/04/02 05:21:48;;;;;;;14.43;8.82;;;7.40;99.90;;;;;;5013780;28;20098;-81
2023/04/02 05:24:32;;;;;;;22.70;10.30;;;7.40;99.90;;;;;;5044758;28;20172;-82
2023/04/02 05:27:03;;;;;;;21.17;11.32;;;7.40;99.90;;;;;;5035817;28;20415;-81
2023/04/02 05:29:37;;;;;;;18.13;11.32;;;7.50;99.90;;;;;;5034566;28;20049;-82
2023/04/02 05:32:14;;;;;;;25.90;14.20;;;7.50;99.90;;;;;;5034754;28;20025;-83
2023/04/02 05:34:45;;;;;;;22.23;13.77;;;7.60;99.90;;;;;;5038734;28;20024;-81
2023/04/02 05:37:21;;;;;;;24.23;11.45;;;7.70;99.90;;;;;;5053838;28;20360;-82
2023/04/02 05:39:53;;;;;;;24.38;12.40;;;7.60;99.90;;;;;;5053948;28;21606;-82
2023/04/02 05:42:23;;;;;;;;;;;7.60;99.90;;;;;;5055003;28;20028;-82
2023/04/02 05:45:04;;;;;;;25.65;9.75;;;7.70;99.90;;;;;;5055089;28;19946;-82
2023/04/02 05:47:32;;;;;;;18.10;9.63;;;7.70;99.90;;;;;;5053943;28;20028;-82
2023/04/02 05:50:20;;;;;;;23.02;9.50;;;7.70;99.90;;;;;;5054767;28;20024;-82
2023/04/02 05:52:52;;;;;;;21.13;9.63;;;7.70;99.90;;;;;;5054371;28;20036;-82
2023/04/02 05:55:30;;;;;;;21.08;9.75;;;7.80;99.90;;;;;;5054620;28;20032;-83
2023/04/02 05:58:01;;;;;;;24.70;9.25;;;7.80;99.90;;;;;;5053005;28;20043;-83
2023/04/02 06:00:46;;;;;;;30.83;14.80;;;7.90;99.90;;;;;;5053502;28;20025;-81
2023/04/02 06:03:26;;;;;;;29.48;13.43;;;8.00;99.90;;;;;;5054912;28;20104;-81
2023/04/02 06:05:55;;;;;;;35.70;17.77;;;8.20;99.90;;;;;;5053245;28;20025;-82
2023/04/02 06:08:44;;;;;;;34.40;17.88;;;8.30;99.90;;;;;;5052989;28;20021;-82
2023/04/02 06:11:11;;;;;;;33.38;16.70;;;8.40;99.90;;;;;;5053228;28;20087;-81
2023/04/02 06:13:37;;;;;;;29.17;13.88;;;8.40;99.90;;;;;;5053476;28;20115;-84
2023/04/02 06:16:04;;;;;;;19.92;10.18;;;8.50;99.90;;;;;;5053240;28;20029;-83
2023/04/02 06:18:33;;;;;;;24.35;13.05;;;8.50;99.90;;;;;;5053068;28;20082;-84
2023/04/02 06:20:59;;;;;;;33.42;11.38;;;8.70;99.90;;;;;;5052882;28;20056;-84
2023/04/02 06:23:31;;;;;;;39.30;16.65;;;8.80;99.90;;;;;;5053051;28;20443;-81
2023/04/02 06:26:18;;;;;;;36.78;16.85;;;8.90;99.90;;;;;;5052035;28;20067;-81
2023/04/02 06:28:58;;;;;;;32.67;16.65;;;9.00;99.90;;;;;;5054336;28;20031;-83
2023/04/02 06:31:53;;;;;;;33.33;16.27;;;9.10;99.90;;;;;;5052714;28;20040;-81
2023/04/02 06:34:24;;;;;;;36.42;17.23;;;9.10;99.90;;;;;;5048722;28;20491;-81
2023/04/02 06:36:54;;;;;;;35.22;18.25;;;9.30;99.90;;;;;;5045924;28;20104;-82
2023/04/02 06:39:23;;;;;;;35.63;17.17;;;9.30;99.90;;;;;;5052502;28;20025;-82
2023/04/02 06:41:58;;;;;;;62.47;29.23;;;9.30;99.90;;;;;;5052684;28;20029;-80
2023/04/02 06:44:26;;;;;;;42.95;20.52;;;9.60;99.90;;;;;;5052710;28;20021;-81
2023/04/02 06:46:57;;;;;;;29.27;13.27;;;9.80;99.90;;;;;;5052177;28;20028;-81
2023/04/02 06:49:33;;;;;;;19.58;8.55;;;10.00;99.90;;;;;;5052278;28;20071;-81
2023/04/02 06:52:01;;;;;;;21.48;8.10;;;10.10;99.90;;;;;;5067510;28;20112;-82
2023/04/02 06:54:26;;;;;;;13.75;6.88;;;10.40;99.90;;;;;;5050931;28;20031;-82
2023/04/02 06:56:55;;;;;;;20.27;9.10;;;10.60;99.90;;;;;;5053774;28;20356;-82
2023/04/02 06:59:21;;;;;;;23.38;9.20;;;10.80;99.90;;;;;;5051722;28;20490;-83
2023/04/02 07:02:05;;;;;;;18.88;8.05;;;10.90;99.90;;;;;;5053812;28;20040;-82
2023/04/02 07:04:32;;;;;;;17.63;7.50;;;11.00;99.90;;;;;;5052066;28;20047;-80
2023/04/02 07:06:58;;;;;;;22.35;9.65;;;11.30;99.90;;;;;;5053578;28;20013;-82
2023/04/02 07:09:24;;;;;;;26.15;10.70;;;11.40;99.90;;;;;;5054010;28;20108;-81
2023/04/02 07:11:50;;;;;;;19.85;9.02;;;11.60;99.90;;;;;;5053953;28;20025;-81
2023/04/02 07:14:16;;;;;;;18.85;8.18;;;12.00;99.90;;;;;;5052474;28;20059;-83
2023/04/02 07:16:42;;;;;;;24.27;10.18;;;12.40;99.90;;;;;;5052896;28;20075;-82
2023/04/02 07:19:17;;;;;;;20.30;8.40;;;12.60;99.90;;;;;;5052569;28;20371;-86
2023/04/02 07:21:43;;;;;;;27.30;12.18;;;12.90;99.90;;;;;;5052833;28;20025;-84
2023/04/02 07:24:09;;;;;;;44.80;21.92;;;13.10;99.90;;;;;;5052658;28;20020;-83
2023/04/02 07:26:35;;;;;;;27.02;12.80;;;13.20;99.90;;;;;;5052600;28;20367;-84
2023/04/02 07:29:01;;;;;;;13.77;7.55;;;13.40;99.90;;;;;;5053554;28;20020;-83
2023/04/02 07:31:27;;;;;;;16.42;10.27;;;13.50;99.90;;;;;;5051890;28;20431;-82
2023/04/02 07:33:59;;;;;;;12.70;6.78;;;13.50;99.90;;;;;;5052572;28;20065;-84
2023/04/02 07:36:29;;;;;;;19.40;10.43;;;13.60;99.90;;;;;;5051776;28;20029;-84
2023/04/02 07:38:55;;;;;;;8.75;5.18;;;14.00;99.90;;;;;;5051728;28;20104;-82
2023/04/02 07:41:22;;;;;;;7.35;3.55;;;14.20;99.90;;;;;;5051779;28;20171;-83
2023/04/02 07:43:47;;;;;;;12.63;7.45;;;14.30;99.90;;;;;;5051528;28;20032;-85
2023/04/02 07:46:15;;;;;;;14.07;7.28;;;14.30;99.90;;;;;;5052018;28;20021;-83
2023/04/02 07:48:42;;;;;;;14.65;6.20;;;14.80;99.90;;;;;;5051846;28;20028;-84
2023/04/02 07:51:25;;;;;;;14.18;5.55;;;15.00;99.40;;;;;;5051509;28;20099;-83
2023/04/02 07:53:54;;;;;;;11.27;5.50;;;15.10;96.10;;;;;;5050863;28;20033;-84
2023/04/02 07:56:22;;;;;;;9.13;4.32;;;15.20;96.70;;;;;;5051929;28;20021;-82
2023/04/02 07:58:48;;;;;;;18.90;9.13;;;15.20;96.80;;;;;;5051367;28;20041;-82
2023/04/02 08:01:25;;;;;;;20.13;9.68;;;15.10;92.20;;;;;;5051460;28;20031;-83
2023/04/02 08:03:52;;;;;;;11.23;5.28;;;15.30;93.20;;;;;;5051774;28;20021;-83
2023/04/02 08:06:18;;;;;;;5.45;2.92;;;15.40;91.70;;;;;;5062426;28;20016;-84
2023/04/02 08:08:44;;;;;;;17.45;7.60;;;15.60;91.20;;;;;;5051987;28;20112;-83
2023/04/02 08:11:10;;;;;;;11.73;4.95;;;15.80;90.80;;;;;;5051299;28;20485;-84
2023/04/02 08:13:39;;;;;;;5.32;2.83;;;16.00;90.40;;;;;;5053109;28;20025;-85
2023/04/02 08:16:08;;;;;;;4.60;2.50;;;16.00;88.60;;;;;;5051743;28;20028;-85
2023/04/02 08:18:37;;;;;;;13.90;5.35;;;16.30;87.70;;;;;;5048074;28;20136;-85
2023/04/02 08:29:12;;;;;;;3.13;1.85;;;16.80;82.00;;;;;;5021459;28;20039;-82
2023/04/02 08:32:08;;;;;;;3.55;2.10;;;16.90;81.90;;;;;;5010926;28;20041;-83
2023/04/02 08:34:48;;;;;;;10.52;5.65;;;16.90;78.30;;;;;;5009643;28;20042;-82
2023/04/02 08:37:14;;;;;;;4.63;1.50;;;17.10;82.40;;;;;;5002624;28;20036;-85
2023/04/02 08:39:40;;;;;;;5.70;2.80;;;17.30;77.50;;;;;;4996566;28;20030;-83
2023/04/02 08:42:33;;;;;;;5.45;2.38;;;17.40;78.20;;;;;;5010514;28;20042;-83
2023/04/02 08:45:17;;;;;;;12.30;4.30;;;17.60;81.10;;;;;;5011231;28;20026;-85
2023/04/02 08:47:46;;;;;;;20.15;8.57;;;17.70;74.40;;;;;;5010878;28;20025;-83
2023/04/02 08:50:38;;;;;;;5.85;3.85;;;18.00;76.90;;;;;;5016902;28;20064;-84
2023/04/02 08:53:12;;;;;;;36.60;14.02;;;18.00;75.70;;;;;;5016098;28;20103;-84
2023/04/02 08:56:18;;;;;;;6.88;4.78;;;18.30;72.10;;;;;;5034109;28;20136;-84
2023/04/02 08:58:54;;;;;;;9.45;4.90;;;18.30;76.20;;;;;;5002389;28;20179;-84
2023/04/02 09:01:50;;;;;;;30.67;13.68;;;18.60;74.00;;;;;;4998495;28;20052;-82
2023/04/02 09:04:19;;;;;;;4.35;3.15;;;18.50;72.90;;;;;;5000882;28;20026;-84
2023/04/02 09:06:47;;;;;;;6.60;3.35;;;18.50;74.30;;;;;;4999130;28;20464;-83
2023/04/02 09:09:14;;;;;;;6.15;3.60;;;18.50;70.20;;;;;;5050556;28;20029;-84
2023/04/02 09:11:49;;;;;;;6.70;4.05;;;18.80;72.10;;;;;;5056397;28;20083;-83
2023/04/02 09:14:34;;;;;;;4.30;3.67;;;18.90;70.20;;;;;;5056387;28;20455;-84
2023/04/02 09:17:13;;;;;;;6.15;4.13;;;19.40;70.70;;;;;;5056330;28;20036;-83
2023/04/02 09:19:49;;;;;;;6.60;3.88;;;19.10;68.90;;;;;;5054980;28;20027;-84
2023/04/02 09:22:30;;;;;;;7.00;4.70;;;19.30;63.00;;;;;;5054875;28;20036;-85
2023/04/02 09:24:58;;;;;;;5.43;3.95;;;19.50;65.20;;;;;;5054935;28;20359;-84
2023/04/02 09:27:27;;;;;;;7.35;4.55;;;19.70;64.80;;;;;;5054806;28;20017;-83
2023/04/02 09:30:05;;;;;;;5.95;4.40;;;19.70;65.10;;;;;;5055435;28;20025;-84
2023/04/02 09:32:39;;;;;;;4.72;3.83;;;19.80;64.10;;;;;;5055016;28;20108;-86
2023/04/02 09:35:20;;;;;;;3.85;3.30;;;20.30;63.60;;;;;;5054747;28;20029;-84
2023/04/02 09:37:46;;;;;;;8.30;4.17;;;20.10;62.10;;;;;;5054269;28;20452;-85
2023/04/02 09:40:25;;;;;;;4.68;4.00;;;19.90;61.50;;;;;;5054596;28;20024;-84
2023/04/02 09:43:15;;;;;;;6.80;4.45;;;19.70;66.50;;;;;;5054779;28;20032;-84
2023/04/02 09:45:43;;;;;;;8.25;5.50;;;19.70;60.90;;;;;;5054155;28;20028;-85
2023/04/02 09:48:38;;;;;;;5.13;3.97;;;20.10;63.20;;;;;;5054432;28;20024;-84
2023/04/02 09:51:19;;;;;;;6.20;4.15;;;19.30;63.30;;;;;;5039416;28;20036;-84
2023/04/02 09:53:47;;;;;;;11.68;6.15;;;19.20;60.50;;;;;;5054296;28;20060;-81
2023/04/02 09:56:25;;;;;;;3.88;3.25;;;19.70;63.30;;;;;;5055736;28;20025;-84
2023/04/02 09:59:06;;;;;;;6.97;4.95;;;19.60;59.90;;;;;;5054752;28;20049;-85
2023/04/02 10:01:33;;;;;;;4.05;3.58;;;19.60;62.70;;;;;;5054204;28;20032;-86
2023/04/02 10:03:59;;;;;;;4.15;3.55;;;19.60;62.60;;;;;;5054404;28;20447;-85
2023/04/02 10:06:28;;;;;;;4.10;3.30;;;20.00;62.40;;;;;;5053656;28;20029;-84
2023/04/02 10:08:53;;;;;;;6.22;4.45;;;20.40;61.40;;;;;;5053902;28;20021;-85
2023/04/02 10:11:34;;;;;;;7.68;4.13;;;20.00;60.40;;;;;;5053754;28;20024;-84
2023/04/02 10:14:03;;;;;;;7.55;5.13;;;20.50;62.40;;;;;;5053687;28;20032;-84
2023/04/02 10:16:44;;;;;;;8.65;4.43;;;20.80;60.20;;;;;;5053850;28;20040;-85
2023/04/02 10:19:22;;;;;;;3.40;3.10;;;;;;;;;;5054573;28;20029;-83
2023/04/02 10:21:48;;;;;;;5.07;4.15;;;;;;;;;;5053747;28;20032;-83
2023/04/02 10:24:15;;;;;;;7.63;4.45;;;;;;;;;;5053664;28;20019;-84
2023/04/02 10:27:15;;;;;;;3.28;2.90;;;21.60;55.40;;;;;;5053384;28;20013;-85
2023/04/02 10:30:06;;;;;;;5.63;4.10;;;21.30;55.70;;;;;;5053720;28;20363;-84
2023/04/02 10:32:47;;;;;;;7.38;3.60;;;21.20;55.60;;;;;;5053908;28;20021;-84
2023/04/02 10:35:34;;;;;;;5.15;4.00;;;20.80;57.90;;;;;;5054431;28;20025;-84
2023/04/02 10:38:03;;;;;;;5.38;3.90;;;;;;;;;;5053512;28;20021;-83
2023/04/02 10:40:45;;;;;;;7.60;5.47;;;21.50;54.70;;;;;;5053185;28;20040;-86
2023/04/02 10:43:29;;;;;;;;;;;21.80;53.90;;;;;;5055369;28;20047;-85
2023/04/02 10:46:24;;;;;;;4.45;3.10;;;20.60;53.00;;;;;;5053295;28;19904;-86
2023/04/02 10:49:00;;;;;;;4.07;3.33;;;19.60;55.20;;;;;;5050827;28;20070;-85
2023/04/02 10:51:57;;;;;;;3.33;2.60;;;20.40;56.90;;;;;;5053200;28;20111;-84
2023/04/02 10:54:41;;;;;;;6.00;4.32;;;21.20;55.00;;;;;;5054164;28;20025;-84
2023/04/02 10:57:13;;;;;;;4.03;3.05;;;;;;;;;;5054104;28;20024;-84
2023/04/02 10:59:39;;;;;;;;;;;;;;;;;;5054467;28;20040;-82
2023/04/02 11:02:14;;;;;;;3.95;3.53;;;;;;;;;;5052686;28;20388;-84
2023/04/02 11:04:44;;;;;;;7.18;4.18;;;;;;;;;;5053318;28;20025;-83
2023/04/02 11:07:24;;;;;;;3.13;2.67;;;;;;;;;;5052905;28;20024;-83
2023/04/02 11:09:51;;;;;;;3.88;3.25;;;;;;;;;;5052999;28;20033;-83
2023/04/02 11:12:26;;;;;;;5.63;3.20;;;21.90;45.50;;;;;;5054145;28;20024;-83
2023/04/02 11:14:53;;;;;;;3.40;2.30;;;21.90;46.40;;;;;;5051996;28;20032;-84
2023/04/02 11:17:19;;;;;;;2.90;2.70;;;21.10;49.20;;;;;;5051327;28;20020;-84
2023/04/02 11:19:45;;;;;;;2.60;2.40;;;21.00;49.70;;;;;;5052548;28;20032;-84
2023/04/02 11:22:19;;;;;;;7.25;4.35;;;;;;;;;;5051530;28;20029;-83
2023/04/02 11:24:48;;;;;;;4.38;3.80;;;;;;;;;;5052672;28;20589;-82
2023/04/02 11:27:17;;;;;;;3.00;2.65;;;;;;;;;;5052418;28;20024;-83
2023/04/02 11:30:06;;;;;;;8.80;4.15;;;22.10;46.80;;;;;;5052308;28;20017;-82
2023/04/02 11:32:48;;;;;;;2.88;2.67;;;22.00;47.10;;;;;;5052739;28;20029;-82
2023/04/02 11:35:30;;;;;;;2.60;2.30;;;;;;;;;;5052580;28;20498;-83
2023/04/02 11:38:03;;;;;;;4.85;3.28;;;22.10;47.00;;;;;;5051797;28;20027;-82
2023/04/02 11:40:45;;;;;;;3.83;3.40;;;22.00;47.50;;;;;;5052096;28;20111;-82
2023/04/02 11:43:34;;;;;;;5.38;3.70;;;21.10;49.90;;;;;;5046832;28;20029;-82
2023/04/02 11:46:15;;;;;;;7.70;4.55;;;21.40;49.40;;;;;;5043949;28;20033;-82
2023/04/02 11:48:41;;;;;;;4.63;3.20;;;21.50;48.80;;;;;;5051889;28;20021;-82
2023/04/02 11:51:19;;;;;;;7.70;5.07;;;21.90;48.00;;;;;;5051525;28;20095;-83
2023/04/02 11:53:46;;;;;;;3.20;2.90;;;21.70;46.20;;;;;;5053464;28;20111;-83
2023/04/02 11:56:15;;;;;;;4.35;3.90;;;;;;;;;;5052708;28;20032;-83
2023/04/02 11:58:41;;;;;;;4.47;3.40;;;;;;;;;;5051786;28;20041;-80
2023/04/02 12:15:15;;;;;;;8.55;4.82;;;22.00;46.80;;;;;;5066673;28;20056;-82
2023/04/02 12:35:15;;;;;;;2.97;2.70;;;21.60;50.50;;;;;;5035150;28;20551;-84
2023/04/02 12:38:32;;;;;;;8.10;5.10;;;21.20;51.30;;;;;;5014144;28;20645;-84
2023/04/02 12:41:00;;;;;;;5.20;3.72;;;20.50;52.90;;;;;;4914345;29;20044;-84
2023/04/02 12:43:34;;;;;;;6.32;3.90;;;21.10;51.60;;;;;;4902330;29;20431;-84
2023/04/02 12:46:02;;;;;;;10.30;5.45;;;;;;;;;;4902006;29;20062;-83
2023/04/02 12:48:29;;;;;;;7.30;5.18;;;22.20;49.30;;;;;;4918215;29;20028;-86
2023/04/02 12:50:56;;;;;;;13.00;7.65;;;;;;;;;;4925379;29;20039;-82
2023/04/02 12:53:34;;;;;;;9.85;5.70;;;;;;;;;;4939878;29;20055;-83
2023/04/02 12:56:00;;;;;;;5.90;4.13;;;22.60;45.60;;;;;;4956334;29;20039;-83
2023/04/02 12:58:35;;;;;;;8.80;4.72;;;22.90;47.50;;;;;;4956101;28;20121;-83
2023/04/02 13:01:13;;;;;;;7.13;4.90;;;22.50;46.60;;;;;;4959067;28;20027;-85
2023/04/02 13:03:38;;;;;;;19.70;9.98;;;21.70;46.30;;;;;;4959458;28;20126;-85
2023/04/02 13:06:21;;;;;;;14.55;8.32;;;21.70;49.10;;;;;;4959272;28;20527;-85
2023/04/02 13:08:47;;;;;;;21.63;11.30;;;21.40;48.80;;;;;;4958949;28;20018;-83
2023/04/02 13:11:12;;;;;;;18.10;8.95;;;20.60;50.50;;;;;;4959075;28;20019;-85
2023/04/02 13:13:40;;;;;;;12.60;7.32;;;20.00;51.50;;;;;;4959243;28;20097;-84
2023/04/02 13:16:18;;;;;;;7.88;5.22;;;21.10;51.00;;;;;;4991637;28;20124;-85
2023/04/02 13:18:46;;;;;;;6.82;4.15;;;21.40;49.60;;;;;;5035088;28;20018;-83
2023/04/02 13:21:18;;;;;;;11.77;6.30;;;21.90;48.30;;;;;;5034659;28;20075;-85
2023/04/02 13:23:44;;;;;;;6.55;3.88;;;21.80;47.00;;;;;;5034905;28;20025;-84
2023/04/02 13:26:21;;;;;;;7.72;4.93;;;21.60;48.80;;;;;;5034868;28;20033;-83
2023/04/02 13:29:18;;;;;;;5.28;3.95;;;20.70;48.90;;;;;;5035749;28;20021;-86
2023/04/02 13:31:47;;;;;;;6.03;3.67;;;20.10;50.50;;;;;;5034810;28;20033;-83
2023/04/02 13:34:13;;;;;;;8.45;4.80;;;19.50;51.60;;;;;;5044568;28;20032;-85
2023/04/02 13:36:38;;;;;;;7.30;5.53;;;18.90;53.10;;;;;;5053893;28;21410;-84
2023/04/02 13:39:04;;;;;;;8.48;4.70;;;19.20;54.50;;;;;;5054561;28;20108;-84
2023/04/02 13:41:33;;;;;;;9.57;5.82;;;19.80;54.70;;;;;;5054283;28;20094;-85
2023/04/02 13:44:03;;;;;;;4.85;3.40;;;20.60;52.40;;;;;;5053849;28;20044;-85
2023/04/02 13:46:33;;;;;;;3.67;3.20;;;21.10;48.50;;;;;;5053953;28;20456;-86
2023/04/02 13:49:00;;;;;;;7.22;5.10;;;21.40;48.60;;;;;;5053518;28;20359;-85
2023/04/02 13:52:04;;;;;;;3.80;3.50;;;21.60;46.90;;;;;;5054860;28;20125;-85
2023/04/02 13:54:38;;;;;;;5.28;3.95;;;21.60;46.60;;;;;;5025665;28;20057;-86
2023/04/02 13:57:05;;;;;;;5.18;3.80;;;21.50;45.60;;;;;;5002688;28;20507;-86
2023/04/02 13:59:30;;;;;;;7.05;4.72;;;21.60;45.50;;;;;;5004694;28;20432;-83
2023/04/02 14:02:01;;;;;;;8.98;3.90;;;21.60;46.80;;;;;;4996876;28;20022;-85
2023/04/02 14:04:34;;;;;;;3.50;3.20;;;21.30;48.20;;;;;;5007393;28;20048;-84
2023/04/02 14:07:17;;;;;;;10.00;7.50;;;21.40;47.60;;;;;;5000322;28;20034;-84
2023/04/02 14:10:04;;;;;;;4.97;3.45;;;21.60;47.80;;;;;;4996671;28;20053;-85